createdAt,value
2022-09-05T00:01:28.282Z,93.96
2022-09-05T00:04:25.213Z,93.66
2022-09-05T00:07:58.350Z,93.94
2022-09-05T00:10:37.177Z,93.99
2022-09-05T00:13:10.715Z,94.12
2022-09-05T00:15:49.462Z,94.67
2022-09-05T00:22:09.483Z,94.38
2022-09-05T00:24:28.427Z,94.24
2022-09-05T00:25:01.024Z,94.68
2022-09-05T00:27:53.526Z,94.78
2022-09-05T00:31:50.570Z,94.65
2022-09-05T00:33:42.894Z,94.27
2022-09-05T00:36:49.481Z,94.07
2022-09-05T00:39:38.607Z,94.21
2022-09-05T00:42:19.343Z,94.41
2022-09-05T00:44:58.614Z,94.68
2022-09-05T00:47:35.364Z,94.54
2022-09-05T00:50:13.177Z,94.72
2022-09-05T00:53:07.844Z,94.99
2022-09-05T00:56:04.391Z,95.29
2022-09-05T00:58:47.668Z,95.06
2022-09-05T01:01:39.186Z,95.40
2022-09-05T01:04:24.642Z,95.18
2022-09-05T01:07:16.675Z,95.35
2022-09-05T01:09:53.453Z,95.12
2022-09-05T01:12:29.278Z,94.74
2022-09-05T01:15:24.166Z,95.58
2022-09-05T01:17:56.646Z,95.29
2022-09-05T01:20:44.631Z,95.29
2022-09-05T01:23:20.519Z,95.81
2022-09-05T01:26:05.295Z,95.48
2022-09-05T01:29:16.852Z,94.85
2022-09-05T01:31:56.900Z,95.58
2022-09-05T01:34:32.600Z,95.26
2022-09-05T01:37:32.907Z,95.29
2022-09-05T01:40:21.130Z,95.45
2022-09-05T01:43:06.626Z,95.56
2022-09-05T01:45:48.794Z,96.37
2022-09-05T01:48:17.368Z,96.43
2022-09-05T01:50:59.319Z,96.05
2022-09-05T01:53:55.621Z,95.90
2022-09-05T01:56:33.682Z,95.73
2022-09-05T01:59:19.287Z,95.87
2022-09-05T02:01:58.180Z,95.79
2022-09-05T02:04:46.671Z,95.71
2022-09-05T02:07:31.884Z,96.20
2022-09-05T02:10:36.119Z,96.03
2022-09-05T02:13:17.602Z,96.38
2022-09-05T02:16:00.468Z,97.15
2022-09-05T02:18:36.529Z,96.98
2022-09-05T02:21:11.615Z,97.36
2022-09-05T02:23:47.892Z,97.61
2022-09-05T02:26:32.180Z,96.96
2022-09-05T02:29:05.506Z,97.19
2022-09-05T02:31:42.040Z,96.92
2022-09-05T02:34:11.742Z,97.25
2022-09-05T02:36:45.518Z,97.76
2022-09-05T02:45:02.533Z,98.20
2022-09-05T02:45:14.817Z,98.17
2022-09-05T02:45:50.865Z,98.05
2022-09-05T02:48:26.661Z,97.90
2022-09-05T02:57:24.731Z,97.97
2022-09-05T02:57:40.977Z,97.46
2022-09-05T02:58:05.991Z,97.78
2022-09-05T03:00:21.277Z,98.11
2022-09-05T03:02:57.004Z,97.93
2022-09-05T03:05:33.601Z,98.36
2022-09-05T03:08:06.286Z,97.92
2022-09-05T03:11:12.165Z,97.88
2022-09-05T03:14:18.070Z,98.27
2022-09-05T03:17:09.451Z,98.46
2022-09-05T03:19:54.371Z,99.06
2022-09-05T03:22:58.715Z,99.02
2022-09-05T03:25:37.531Z,99.03
2022-09-05T03:28:51.206Z,99.07
2022-09-05T03:31:42.872Z,98.91
2022-09-05T03:34:27.646Z,99.23
2022-09-05T03:36:54.298Z,98.07
2022-09-05T03:39:51.630Z,98.40
2022-09-05T03:42:30.914Z,98.61
2022-09-05T03:45:04.666Z,98.86
2022-09-05T03:48:28.561Z,99.03
2022-09-05T03:54:43.444Z,98.76
2022-09-05T03:57:11.565Z,98.74
2022-09-05T03:57:32.375Z,99.10
2022-09-05T04:00:10.281Z,99.75
2022-09-05T04:08:08.589Z,99.40
2022-09-05T04:08:23.603Z,99.08
2022-09-05T04:09:09.837Z,99.17
2022-09-05T04:11:41.897Z,99.33
2022-09-05T04:14:40.958Z,99.44
2022-09-05T04:17:20.117Z,99.28
2022-09-05T04:20:02.733Z,99.72
2022-09-05T04:23:07.146Z,99.01
2022-09-05T04:25:39.699Z,99.44
2022-09-05T04:28:32.020Z,98.94
2022-09-05T04:31:10.490Z,99.35
2022-09-05T04:34:04.345Z,99.54
2022-09-05T04:36:34.583Z,99.30
2022-09-05T04:39:19.651Z,99.41
2022-09-05T04:41:54.599Z,99.15
2022-09-05T04:44:33.543Z,99.10
2022-09-05T04:47:10.416Z,98.06
2022-09-05T04:49:43.380Z,98.42
2022-09-05T04:52:29.416Z,98.17
2022-09-05T04:55:27.328Z,97.88
2022-09-05T04:58:11.011Z,98.38
2022-09-05T05:06:01.554Z,97.99
2022-09-05T05:06:10.309Z,98.00
2022-09-05T05:06:47.413Z,98.59
2022-09-05T05:10:41.821Z,98.45
2022-09-05T05:17:59.776Z,98.26
2022-09-05T05:18:01.025Z,98.66
2022-09-05T05:19:18.707Z,98.41
2022-09-05T05:21:55.666Z,98.78
2022-09-05T05:24:26.405Z,98.71
2022-09-05T05:27:11.795Z,97.95
2022-09-05T05:29:58.444Z,97.62
2022-09-05T05:32:45.456Z,96.86
2022-09-05T05:35:24.638Z,96.34
2022-09-05T05:38:10.960Z,95.67
2022-09-05T05:40:43.630Z,95.54
2022-09-05T05:43:25.907Z,96.12
2022-09-05T05:46:00.616Z,96.69
2022-09-05T05:48:33.452Z,97.05
2022-09-05T05:51:07.768Z,97.06
2022-09-05T05:54:18.878Z,96.60
2022-09-05T05:57:00.279Z,96.22
2022-09-05T06:00:01.947Z,95.90
2022-09-05T06:03:10.018Z,95.54
2022-09-05T06:06:07.243Z,95.06
2022-09-05T06:14:48.125Z,94.74
2022-09-05T06:15:02.640Z,95.16
2022-09-05T06:15:12.067Z,94.76
2022-09-05T06:17:55.473Z,94.14
2022-09-05T06:22:07.594Z,94.41
2022-09-05T06:23:23.983Z,93.57
2022-09-05T06:26:29.993Z,93.09
2022-09-05T06:29:12.763Z,93.79
2022-09-05T06:32:02.385Z,94.29
2022-09-05T06:34:41.280Z,94.28
2022-09-05T06:37:35.486Z,93.60
2022-09-05T06:40:19.710Z,92.67
2022-09-05T06:43:16.429Z,90.72
2022-09-05T06:45:59.038Z,89.11
2022-09-05T06:48:44.493Z,88.09
2022-09-05T06:51:44.187Z,85.26
2022-09-05T06:54:27.141Z,85.80
2022-09-05T06:57:40.012Z,86.30
2022-09-05T07:00:24.798Z,85.36
2022-09-05T07:03:15.989Z,85.06
2022-09-05T07:06:07.604Z,84.95
2022-09-05T07:08:54.056Z,84.86
2022-09-05T07:11:25.707Z,83.80
2022-09-05T07:13:57.720Z,83.38
2022-09-05T07:16:39.717Z,81.99
2022-09-05T07:19:10.227Z,81.04
2022-09-05T07:21:52.523Z,81.13
2022-09-05T07:24:54.311Z,80.77
2022-09-05T07:27:25.356Z,79.84
2022-09-05T07:30:01.027Z,79.59
2022-09-05T07:32:42.758Z,76.85
2022-09-05T07:35:19.841Z,79.03
2022-09-05T07:37:53.451Z,79.82
2022-09-05T07:40:26.359Z,78.75
2022-09-05T07:43:10.096Z,78.46
2022-09-05T07:45:55.319Z,77.57
2022-09-05T07:48:35.005Z,78.11
2022-09-05T07:55:26.202Z,77.80
2022-09-05T07:57:05.033Z,77.88
2022-09-05T08:00:03.454Z,78.45
2022-09-05T08:02:51.439Z,78.71
2022-09-05T08:05:26.022Z,78.46
2022-09-05T08:08:08.550Z,76.84
2022-09-05T08:11:24.430Z,76.76
2022-09-05T08:13:49.669Z,76.75
2022-09-05T08:16:21.625Z,76.56
2022-09-05T08:18:54.394Z,76.24
2022-09-05T08:21:46.333Z,76.27
2022-09-05T08:24:25.083Z,77.50
2022-09-05T08:26:59.375Z,75.43
2022-09-05T08:29:31.992Z,73.68
2022-09-05T08:32:12.074Z,73.04
2022-09-05T08:34:45.385Z,73.19
2022-09-05T08:37:21.239Z,72.80
2022-09-05T08:39:57.487Z,71.06
2022-09-05T08:46:06.193Z,71.34
2022-09-05T08:46:47.821Z,70.73
2022-09-05T08:48:49.246Z,71.18
2022-09-05T08:51:26.544Z,69.86
2022-09-05T08:54:18.387Z,68.62
2022-09-05T08:56:48.036Z,68.09
2022-09-05T08:59:45.779Z,67.25
2022-09-05T09:02:50.936Z,65.20
2022-09-05T09:05:59.404Z,64.92
2022-09-05T09:08:50.838Z,64.05
2022-09-05T09:11:41.519Z,65.64
2022-09-05T09:14:31.362Z,65.47
2022-09-05T09:17:16.097Z,63.50
2022-09-05T09:19:48.890Z,63.33
2022-09-05T09:22:36.772Z,63.23
2022-09-05T09:25:14.600Z,63.49
2022-09-05T09:28:45.224Z,62.60
2022-09-05T09:31:09.975Z,61.85
2022-09-05T09:33:55.589Z,62.55
2022-09-05T09:36:22.309Z,62.66
2022-09-05T09:39:37.598Z,58.23
2022-09-05T09:42:32.652Z,57.25
2022-09-05T09:45:28.355Z,55.27
2022-09-05T09:48:11.049Z,54.24
2022-09-05T09:51:06.283Z,55.17
2022-09-05T09:54:05.383Z,54.43
2022-09-05T09:56:56.960Z,55.12
2022-09-05T09:59:54.145Z,53.50
2022-09-05T10:03:56.565Z,52.41
2022-09-05T10:10:52.847Z,53.69
2022-09-05T10:10:57.331Z,52.95
2022-09-05T10:11:56.134Z,53.23
2022-09-05T10:14:52.924Z,54.09
2022-09-05T10:17:22.736Z,52.98
2022-09-05T10:20:24.029Z,52.40
2022-09-05T10:23:15.544Z,53.80
2022-09-05T10:26:17.125Z,51.00
2022-09-05T10:29:11.727Z,50.37
2022-09-05T10:34:35.769Z,49.94
2022-09-05T10:35:21.015Z,50.92
2022-09-05T10:37:55.010Z,49.11
2022-09-05T10:40:24.308Z,49.01
2022-09-05T10:43:03.097Z,49.63
2022-09-05T10:45:49.484Z,48.90
2022-09-05T10:48:24.805Z,48.60
2022-09-05T10:51:00.760Z,45.67
2022-09-05T10:53:45.955Z,46.09
2022-09-05T10:56:23.472Z,44.64
2022-09-05T11:01:12.737Z,45.85
2022-09-05T11:02:28.058Z,46.00
2022-09-05T11:05:03.321Z,45.32
2022-09-05T11:07:36.354Z,45.13
2022-09-05T11:10:20.398Z,44.45
2022-09-05T11:13:14.376Z,44.12
2022-09-05T11:16:04.275Z,43.97
2022-09-05T11:18:57.651Z,43.91
2022-09-05T11:22:03.967Z,43.71
2022-09-05T11:24:51.186Z,44.84
2022-09-05T11:27:31.418Z,44.17
2022-09-05T11:30:30.285Z,43.20
2022-09-05T11:39:57.724Z,43.38
2022-09-05T11:39:58.915Z,42.82
2022-09-05T11:40:31.020Z,42.77
2022-09-05T11:43:09.758Z,43.36
2022-09-05T11:45:43.062Z,44.02
2022-09-05T11:48:57.490Z,44.03
2022-09-05T11:51:28.324Z,40.56
2022-09-05T11:54:33.221Z,41.70
2022-09-05T11:57:56.882Z,42.24
2022-09-05T12:00:46.754Z,42.10
2022-09-05T12:03:58.174Z,43.76
2022-09-05T12:06:14.907Z,42.55
2022-09-05T12:08:54.969Z,43.23
2022-09-05T12:11:25.221Z,42.24
2022-09-05T12:14:21.389Z,40.90
2022-09-05T12:16:55.399Z,41.57
2022-09-05T12:19:28.093Z,42.41
2022-09-05T12:22:18.624Z,41.11
2022-09-05T12:25:26.606Z,41.89
2022-09-05T12:28:15.247Z,40.56
2022-09-05T12:30:57.113Z,40.40
2022-09-05T12:36:05.068Z,39.53
2022-09-05T12:40:43.517Z,40.78
2022-09-05T12:41:33.000Z,41.84
2022-09-05T12:44:34.635Z,41.39
2022-09-05T12:45:46.119Z,42.73
2022-09-05T12:48:38.825Z,42.08
2022-09-05T12:51:47.106Z,41.74
2022-09-05T12:54:33.331Z,41.43
2022-09-05T13:01:53.139Z,40.62
2022-09-05T13:03:07.313Z,40.44
2022-09-05T13:03:27.064Z,41.24
2022-09-05T13:06:02.022Z,41.07
2022-09-05T13:08:44.037Z,41.50
2022-09-05T13:14:55.596Z,41.73
2022-09-05T13:15:02.310Z,40.82
2022-09-05T13:17:16.692Z,42.18
2022-09-05T13:19:51.396Z,42.02
2022-09-05T13:22:24.445Z,41.92
2022-09-05T13:25:03.071Z,41.55
2022-09-05T13:27:39.521Z,41.33
2022-09-05T13:33:24.013Z,41.13
2022-09-05T13:38:00.574Z,39.83
2022-09-05T13:38:10.165Z,40.82
2022-09-05T13:39:06.840Z,40.84
2022-09-05T13:41:48.788Z,40.18
2022-09-05T13:44:26.723Z,40.79
2022-09-05T13:47:29.870Z,40.66
2022-09-05T13:50:27.115Z,40.76
2022-09-05T13:52:58.996Z,41.03
2022-09-05T13:55:46.345Z,41.52
2022-09-05T13:58:42.919Z,41.60
2022-09-05T14:02:25.520Z,42.27
2022-09-05T14:05:17.889Z,42.35
2022-09-05T14:08:16.831Z,41.91
2022-09-05T14:11:11.048Z,42.68
2022-09-05T14:13:49.523Z,42.21
2022-09-05T14:16:29.404Z,41.59
2022-09-05T14:19:15.164Z,41.84
2022-09-05T14:21:44.275Z,42.01
2022-09-05T14:24:27.688Z,41.23
2022-09-05T14:27:03.014Z,42.34
2022-09-05T14:29:46.550Z,42.28
2022-09-05T14:37:35.955Z,41.75
2022-09-05T14:37:44.164Z,41.70
2022-09-05T14:38:24.220Z,41.49
2022-09-05T14:41:10.183Z,41.90
2022-09-05T14:43:39.871Z,42.60
2022-09-05T14:46:33.739Z,41.73
2022-09-05T14:49:25.748Z,42.54
2022-09-05T14:51:52.973Z,41.93
2022-09-05T15:02:45.135Z,42.33
2022-09-05T15:02:50.083Z,42.13
2022-09-05T15:03:05.103Z,41.71
2022-09-05T15:05:45.392Z,42.37
2022-09-05T15:10:28.257Z,43.11
2022-09-05T15:12:24.352Z,43.67
2022-09-05T15:14:06.567Z,44.26
2022-09-05T15:16:38.672Z,44.43
2022-09-05T15:19:09.940Z,43.91
2022-09-05T15:21:40.621Z,44.49
2022-09-05T15:24:21.534Z,44.21
2022-09-05T15:26:55.286Z,44.08
2022-09-05T15:29:36.992Z,45.06
2022-09-05T15:32:21.541Z,44.55
2022-09-05T15:34:54.692Z,43.69
2022-09-05T15:37:36.857Z,44.78
2022-09-05T15:40:24.023Z,44.62
2022-09-05T15:42:57.716Z,44.99
2022-09-05T15:45:37.554Z,44.98
2022-09-05T15:48:24.000Z,45.31
2022-09-05T15:50:55.586Z,46.12
2022-09-05T15:53:26.271Z,45.73
2022-09-05T15:56:00.033Z,46.25
2022-09-05T15:58:27.595Z,45.83
2022-09-05T16:01:48.628Z,46.44
2022-09-05T16:10:29.160Z,46.46
2022-09-05T16:10:30.984Z,46.21
2022-09-05T16:10:49.543Z,46.37
2022-09-05T16:12:48.860Z,46.65
2022-09-05T16:19:58.198Z,46.65
2022-09-05T16:23:17.853Z,46.64
2022-09-05T16:23:33.137Z,46.81
2022-09-05T16:24:57.984Z,47.22
2022-09-05T16:27:36.215Z,47.46
2022-09-05T16:30:15.697Z,47.96
2022-09-05T16:32:46.528Z,48.23
2022-09-05T16:35:26.367Z,48.51
2022-09-05T16:38:08.385Z,48.78
2022-09-05T16:40:40.810Z,48.87
2022-09-05T16:43:24.252Z,49.49
2022-09-05T16:46:07.043Z,49.47
2022-09-05T16:48:55.598Z,49.75
2022-09-05T16:51:52.897Z,49.98
2022-09-05T16:54:34.909Z,50.31
2022-09-05T16:57:10.895Z,50.37
2022-09-05T16:59:41.710Z,50.72
2022-09-05T17:02:28.842Z,51.03
2022-09-05T17:06:00.531Z,51.07
2022-09-05T17:08:30.121Z,51.09
2022-09-05T17:11:12.161Z,51.25
2022-09-05T17:13:56.217Z,51.48
2022-09-05T17:16:47.502Z,51.98
2022-09-05T17:19:22.185Z,52.23
2022-09-05T17:25:14.068Z,52.76
2022-09-05T17:29:28.937Z,53.16
2022-09-05T17:29:45.743Z,53.30
2022-09-05T17:33:44.936Z,54.09
2022-09-05T17:36:21.079Z,54.38
2022-09-05T17:39:44.585Z,55.08
2022-09-05T17:42:36.967Z,56.24
2022-09-05T17:45:12.972Z,55.97
2022-09-05T17:47:50.057Z,56.51
2022-09-05T17:50:44.235Z,56.92
2022-09-05T17:53:26.269Z,57.22
2022-09-05T17:55:55.101Z,57.62
2022-09-05T17:58:28.244Z,57.78
2022-09-05T18:01:26.843Z,57.86
2022-09-05T18:04:16.633Z,57.76
2022-09-05T18:06:52.820Z,58.16
2022-09-05T18:09:40.049Z,58.08
2022-09-05T18:12:37.966Z,58.30
2022-09-05T18:15:26.447Z,58.61
2022-09-05T18:17:53.122Z,58.74
2022-09-05T18:20:39.517Z,59.72
2022-09-05T18:23:39.283Z,59.30
2022-09-05T18:26:21.369Z,60.12
2022-09-05T18:29:57.424Z,60.79
2022-09-05T18:32:11.985Z,61.72
2022-09-05T18:34:41.209Z,63.38
2022-09-05T18:37:37.463Z,64.67
2022-09-05T18:40:29.856Z,65.31
2022-09-05T18:43:10.551Z,66.54
2022-09-05T18:45:52.809Z,67.63
2022-09-05T18:48:29.970Z,68.58
2022-09-05T18:51:15.040Z,69.45
2022-09-05T18:53:47.616Z,69.30
2022-09-05T18:56:29.080Z,70.20
2022-09-05T18:59:34.530Z,69.60
2022-09-05T19:02:08.990Z,68.48
2022-09-05T19:05:01.261Z,66.75
2022-09-05T19:07:39.983Z,64.97
2022-09-05T19:10:36.255Z,65.04
2022-09-05T19:13:17.488Z,65.20
2022-09-05T19:16:42.639Z,63.92
2022-09-05T19:19:05.844Z,62.99
2022-09-05T19:21:33.683Z,63.16
2022-09-05T19:24:07.192Z,64.53
2022-09-05T19:26:34.538Z,64.29
2022-09-05T19:36:46.652Z,66.87
2022-09-05T19:36:56.898Z,66.31
2022-09-05T19:37:13.894Z,67.69
2022-09-05T19:37:48.251Z,69.25
2022-09-05T19:47:00.518Z,70.55
2022-09-05T19:47:44.714Z,72.21
2022-09-05T19:47:49.137Z,73.55
2022-09-05T19:49:10.681Z,74.79
2022-09-05T19:51:39.142Z,76.05
2022-09-05T19:54:06.155Z,75.75
2022-09-05T19:56:45.836Z,75.71
2022-09-05T19:59:22.487Z,76.32
2022-09-05T20:01:51.751Z,77.09
2022-09-05T20:04:20.060Z,77.29
2022-09-05T20:06:49.515Z,77.79
2022-09-05T20:09:19.043Z,78.02
2022-09-05T20:11:58.593Z,77.99
2022-09-05T20:14:31.424Z,77.97
2022-09-05T20:17:28.602Z,77.18
2022-09-05T20:20:08.613Z,76.37
2022-09-05T20:22:48.893Z,76.14
2022-09-05T20:25:42.787Z,75.94
2022-09-05T20:28:13.779Z,76.04
2022-09-05T20:30:46.858Z,76.40
2022-09-05T20:33:19.627Z,76.98
2022-09-05T20:43:07.762Z,77.48
2022-09-05T20:43:15.404Z,78.24
2022-09-05T20:43:23.465Z,79.71
2022-09-05T20:44:25.065Z,80.50
2022-09-05T20:54:06.213Z,81.58
2022-09-05T20:54:08.451Z,81.33
2022-09-05T20:54:14.454Z,82.20
2022-09-05T20:56:04.657Z,82.89
2022-09-05T20:58:35.351Z,82.90
2022-09-05T21:01:19.619Z,83.12
2022-09-05T21:04:01.074Z,83.87
2022-09-05T21:06:34.542Z,84.61
2022-09-05T21:09:25.116Z,84.64
2022-09-05T21:11:58.727Z,84.78
2022-09-05T21:14:29.142Z,84.57
2022-09-05T21:17:08.288Z,84.92
2022-09-05T21:19:53.396Z,84.67
2022-09-05T21:22:20.993Z,85.00
2022-09-05T21:24:48.854Z,85.07
2022-09-05T21:27:25.769Z,85.53
2022-09-05T21:29:58.672Z,85.45
2022-09-05T21:32:36.136Z,85.68
2022-09-05T21:35:34.635Z,86.00
2022-09-05T21:37:57.032Z,86.65
2022-09-05T21:40:23.948Z,86.70
2022-09-05T21:46:38.655Z,86.59
2022-09-05T21:47:38.728Z,87.44
2022-09-05T21:48:28.190Z,87.56
2022-09-05T21:51:02.482Z,87.75
2022-09-05T21:57:56.642Z,87.85
2022-09-05T21:59:29.832Z,88.12
2022-09-05T22:02:01.388Z,88.30
2022-09-05T22:04:28.327Z,87.99
2022-09-05T22:06:58.658Z,88.20
2022-09-05T22:09:25.756Z,88.39
2022-09-05T22:11:52.867Z,88.38
2022-09-05T22:14:21.978Z,88.97
2022-09-05T22:16:52.137Z,88.91
2022-09-05T22:19:37.049Z,89.15
2022-09-05T22:22:16.022Z,89.36
2022-09-05T22:24:57.040Z,89.51
2022-09-05T22:27:27.448Z,90.08
2022-09-05T22:29:55.747Z,89.87
2022-09-05T22:32:34.117Z,89.90
2022-09-05T22:35:18.534Z,90.41
2022-09-05T22:37:59.206Z,90.37
2022-09-05T22:40:28.793Z,90.85
2022-09-05T22:42:57.984Z,90.64
2022-09-05T22:45:26.015Z,90.71
2022-09-05T22:47:53.195Z,90.90
2022-09-05T22:50:19.903Z,91.01
2022-09-05T22:52:46.634Z,91.35
2022-09-05T22:55:13.414Z,91.61
2022-09-05T22:57:40.861Z,91.46
2022-09-05T23:00:08.419Z,91.47
2022-09-05T23:02:37.858Z,91.51
2022-09-05T23:05:05.887Z,91.75
2022-09-05T23:07:32.994Z,91.92
2022-09-05T23:09:59.758Z,91.92
2022-09-05T23:12:26.703Z,92.20
2022-09-05T23:14:53.530Z,92.26
2022-09-05T23:17:20.172Z,91.84
2022-09-05T23:19:46.882Z,91.99
2022-09-05T23:22:13.558Z,91.84
2022-09-05T23:24:40.309Z,91.86
2022-09-05T23:27:06.948Z,91.90
2022-09-05T23:29:33.637Z,91.74
2022-09-05T23:32:00.284Z,91.44
2022-09-05T23:34:26.977Z,91.74
2022-09-05T23:36:53.655Z,91.88
2022-09-05T23:39:20.336Z,92.16
2022-09-05T23:41:46.988Z,92.19
2022-09-05T23:44:13.679Z,92.32
2022-09-05T23:46:40.493Z,92.65
2022-09-05T23:49:07.338Z,93.05
2022-09-05T23:51:34.059Z,93.37
2022-09-05T23:54:00.718Z,93.11
2022-09-05T23:56:27.389Z,93.41
2022-09-05T23:58:54.353Z,93.38
